createdAt,value
2017-08-08T00:02:17.191Z,91.90
2017-08-08T00:04:46.286Z,91.90
2017-08-08T00:07:14.577Z,92.10
2017-08-08T00:09:42.838Z,92.00
2017-08-08T00:12:19.309Z,92.00
2017-08-08T00:17:41.675Z,91.50
2017-08-08T00:20:09.929Z,91.50
2017-08-08T00:22:37.498Z,91.50
2017-08-08T00:25:05.768Z,91.50
2017-08-08T00:27:33.336Z,91.60
2017-08-08T00:30:01.602Z,91.90
2017-08-08T00:32:30.293Z,91.80
2017-08-08T00:34:57.799Z,91.90
2017-08-08T00:37:32.179Z,92.10
2017-08-08T00:40:00.462Z,92.40
2017-08-08T00:42:28.723Z,92.50
2017-08-08T00:44:56.293Z,92.40
2017-08-08T00:47:24.558Z,92.60
2017-08-08T00:49:52.121Z,92.60
2017-08-08T00:52:19.672Z,92.50
2017-08-08T00:54:47.245Z,92.50
2017-08-08T00:57:15.508Z,92.50
2017-08-08T00:59:42.982Z,92.40
2017-08-08T01:02:11.255Z,93.10
2017-08-08T01:04:39.534Z,92.80
2017-08-08T01:07:07.817Z,93.00
2017-08-08T01:09:36.084Z,92.90
2017-08-08T01:12:04.355Z,93.00
2017-08-08T01:14:31.820Z,92.80
2017-08-08T01:17:00.065Z,92.80
2017-08-08T01:19:27.655Z,92.70
2017-08-08T01:21:55.938Z,92.60
2017-08-08T01:24:24.663Z,92.70
2017-08-08T01:26:52.141Z,92.60
2017-08-08T01:29:19.633Z,92.60
2017-08-08T01:31:47.910Z,92.50
2017-08-08T01:34:35.246Z,92.50
2017-08-08T01:37:03.526Z,92.60
2017-08-08T01:39:31.775Z,92.70
2017-08-08T01:41:59.345Z,92.70
2017-08-08T01:47:21.390Z,92.90
2017-08-08T01:49:48.882Z,92.80
2017-08-08T01:52:16.403Z,92.60
2017-08-08T01:54:43.973Z,92.30
2017-08-08T01:57:12.221Z,92.50
2017-08-08T01:59:39.702Z,92.40
2017-08-08T02:02:07.268Z,92.50
2017-08-08T02:04:36.366Z,92.60
2017-08-08T02:07:04.606Z,92.50
2017-08-08T02:09:32.078Z,92.50
2017-08-08T02:11:59.572Z,92.80
2017-08-08T02:14:27.119Z,93.30
2017-08-08T02:16:54.613Z,93.70
2017-08-08T02:19:22.085Z,93.70
2017-08-08T02:21:49.584Z,93.80
2017-08-08T02:24:17.871Z,93.80
2017-08-08T02:26:46.117Z,93.50
2017-08-08T02:29:14.299Z,93.50
2017-08-08T02:31:41.869Z,93.50
2017-08-08T02:34:09.429Z,93.50
2017-08-08T02:36:37.713Z,93.40
2017-08-08T02:39:05.981Z,93.40
2017-08-08T02:44:44.642Z,93.40
2017-08-08T02:47:12.096Z,93.40
2017-08-08T02:49:39.642Z,93.50
2017-08-08T03:00:47.893Z,93.20
2017-08-08T03:03:15.360Z,93.20
2017-08-08T03:05:43.647Z,93.20
2017-08-08T03:08:24.862Z,93.00
2017-08-08T03:10:52.352Z,93.00
2017-08-08T03:13:19.831Z,93.40
2017-08-08T03:15:47.396Z,93.60
2017-08-08T03:18:15.673Z,93.30
2017-08-08T03:20:43.952Z,93.70
2017-08-08T03:23:12.231Z,94.00
2017-08-08T03:25:40.502Z,94.20
2017-08-08T03:28:08.784Z,94.00
2017-08-08T03:30:37.024Z,94.00
2017-08-08T03:33:05.095Z,94.00
2017-08-08T03:35:32.653Z,94.20
2017-08-08T03:38:00.142Z,94.60
2017-08-08T03:40:28.415Z,94.10
2017-08-08T03:42:55.980Z,94.10
2017-08-08T03:45:24.260Z,94.20
2017-08-08T03:53:38.946Z,94.00
2017-08-08T03:56:06.513Z,93.90
2017-08-08T03:58:34.799Z,93.90
2017-08-08T04:01:02.382Z,93.60
2017-08-08T04:03:29.925Z,93.60
2017-08-08T04:05:57.477Z,93.70
2017-08-08T04:08:25.745Z,93.30
2017-08-08T04:10:54.016Z,93.40
2017-08-08T04:13:21.593Z,93.40
2017-08-08T04:16:05.071Z,94.00
2017-08-08T04:18:32.548Z,94.00
2017-08-08T04:21:00.027Z,94.20
2017-08-08T04:23:28.283Z,94.10
2017-08-08T04:25:56.686Z,94.10
2017-08-08T04:28:25.062Z,94.10
2017-08-08T04:30:53.333Z,94.30
2017-08-08T04:33:20.812Z,94.30
2017-08-08T04:35:49.093Z,94.50
2017-08-08T04:38:16.628Z,94.50
2017-08-08T04:40:44.912Z,94.90
2017-08-08T04:43:13.193Z,94.70
2017-08-08T04:45:43.290Z,94.60
2017-08-08T04:48:10.771Z,94.60
2017-08-08T04:50:39.929Z,94.50
2017-08-08T04:53:07.401Z,94.50
2017-08-08T04:55:37.541Z,94.30
2017-08-08T04:58:05.809Z,94.70
2017-08-08T05:00:33.317Z,94.60
2017-08-08T05:03:00.835Z,94.40
2017-08-08T05:05:29.108Z,94.40
2017-08-08T05:07:57.368Z,94.70
2017-08-08T05:10:24.941Z,94.40
2017-08-08T05:12:52.417Z,94.40
2017-08-08T05:15:19.961Z,94.60
2017-08-08T05:17:48.275Z,94.40
2017-08-08T05:20:15.797Z,94.50
2017-08-08T05:22:43.349Z,94.60
2017-08-08T05:25:11.637Z,94.70
2017-08-08T05:27:39.901Z,94.80
2017-08-08T05:30:07.475Z,94.80
2017-08-08T05:32:35.751Z,95.10
2017-08-08T05:37:57.154Z,95.20
2017-08-08T05:40:24.665Z,95.20
2017-08-08T05:42:52.199Z,95.30
2017-08-08T05:45:20.481Z,95.50
2017-08-08T05:47:48.720Z,95.20
2017-08-08T05:50:16.308Z,95.20
2017-08-08T05:52:43.857Z,94.90
2017-08-08T05:55:11.430Z,94.80
2017-08-08T05:57:39.707Z,94.70
2017-08-08T06:00:07.966Z,95.00
2017-08-08T06:02:35.541Z,94.70
2017-08-08T06:05:03.832Z,94.90
2017-08-08T06:07:32.094Z,94.80
2017-08-08T06:10:00.380Z,94.90
2017-08-08T06:12:28.612Z,95.00
2017-08-08T06:14:56.121Z,94.90
2017-08-08T06:20:17.580Z,95.00
2017-08-08T06:22:45.882Z,95.00
2017-08-08T06:25:13.379Z,95.10
2017-08-08T06:27:42.507Z,95.30
2017-08-08T06:30:10.028Z,95.30
2017-08-08T06:32:38.300Z,95.80
2017-08-08T06:35:06.695Z,95.80
2017-08-08T06:37:34.964Z,95.00
2017-08-08T06:40:03.446Z,95.00
2017-08-08T06:42:31.837Z,94.50
2017-08-08T06:44:59.380Z,94.50
2017-08-08T06:47:27.639Z,94.00
2017-08-08T06:49:56.136Z,94.00
2017-08-08T06:52:23.634Z,93.80
2017-08-08T06:54:51.757Z,93.60
2017-08-08T06:57:19.330Z,93.40
2017-08-08T06:59:47.612Z,93.60
2017-08-08T07:08:03.234Z,93.10
2017-08-08T07:10:32.311Z,93.20
2017-08-08T07:12:59.796Z,93.20
2017-08-08T07:15:28.053Z,93.10
2017-08-08T07:17:55.553Z,93.00
2017-08-08T07:20:23.079Z,92.90
2017-08-08T07:22:51.341Z,93.20
2017-08-08T07:25:18.911Z,93.20
2017-08-08T07:27:47.179Z,93.10
2017-08-08T07:30:14.665Z,93.10
2017-08-08T07:32:42.209Z,93.10
2017-08-08T07:35:10.555Z,93.40
2017-08-08T07:37:38.030Z,93.30
2017-08-08T07:40:05.599Z,93.80
2017-08-08T07:42:33.080Z,94.10
2017-08-08T07:45:00.584Z,93.90
2017-08-08T07:47:28.060Z,94.10
2017-08-08T07:49:55.630Z,93.80
2017-08-08T07:52:23.189Z,94.10
2017-08-08T07:54:51.435Z,94.70
2017-08-08T07:57:19.024Z,94.70
2017-08-08T07:59:47.298Z,94.90
2017-08-08T08:02:14.780Z,95.00
2017-08-08T08:04:42.323Z,95.20
2017-08-08T08:07:10.597Z,95.20
2017-08-08T08:09:38.872Z,94.90
2017-08-08T08:12:07.145Z,94.30
2017-08-08T08:14:34.704Z,94.20
2017-08-08T08:17:02.265Z,94.00
2017-08-08T08:19:30.544Z,93.40
2017-08-08T08:21:58.824Z,93.80
2017-08-08T08:24:27.108Z,93.10
2017-08-08T08:26:55.378Z,92.50
2017-08-08T08:29:23.650Z,92.80
2017-08-08T08:31:51.941Z,92.30
2017-08-08T08:34:20.200Z,91.50
2017-08-08T08:36:47.779Z,91.40
2017-08-08T08:39:16.145Z,89.60
2017-08-08T08:41:44.422Z,89.40
2017-08-08T08:44:12.698Z,89.10
2017-08-08T08:46:41.052Z,89.40
2017-08-08T08:49:08.756Z,89.40
2017-08-08T08:51:36.069Z,89.60
2017-08-08T08:54:03.538Z,89.90
2017-08-08T08:56:31.104Z,89.90
2017-08-08T08:58:58.680Z,90.50
2017-08-08T09:01:26.944Z,90.70
2017-08-08T09:03:55.323Z,91.10
2017-08-08T09:06:23.599Z,90.40
2017-08-08T09:08:51.868Z,91.00
2017-08-08T09:11:19.364Z,91.00
2017-08-08T09:13:46.892Z,91.20
2017-08-08T09:16:15.153Z,91.70
2017-08-08T09:18:42.723Z,91.60
2017-08-08T09:21:10.286Z,91.80
2017-08-08T09:23:38.522Z,91.40
2017-08-08T09:26:06.026Z,91.40
2017-08-08T09:28:34.291Z,92.00
2017-08-08T09:31:01.862Z,91.90
2017-08-08T09:33:30.129Z,92.00
2017-08-08T09:35:57.631Z,91.90
2017-08-08T09:38:25.151Z,92.80
2017-08-08T09:40:53.429Z,94.00
2017-08-08T09:43:21.665Z,95.30
2017-08-08T09:45:49.166Z,95.10
2017-08-08T09:48:17.431Z,95.60
2017-08-08T09:50:45.009Z,95.70
2017-08-08T09:53:13.274Z,96.60
2017-08-08T09:55:41.540Z,97.60
2017-08-08T09:58:09.093Z,97.60
2017-08-08T10:00:36.676Z,97.20
2017-08-08T10:03:05.042Z,96.30
2017-08-08T10:05:32.614Z,96.30
2017-08-08T10:08:00.881Z,96.30
2017-08-08T10:10:28.444Z,96.20
2017-08-08T10:12:56.711Z,96.50
2017-08-08T10:15:24.277Z,96.20
2017-08-08T10:17:52.547Z,96.10
2017-08-08T10:20:20.135Z,95.90
2017-08-08T10:22:47.613Z,94.20
2017-08-08T10:25:15.122Z,93.70
2017-08-08T10:27:42.611Z,94.40
2017-08-08T10:30:10.107Z,94.80
2017-08-08T10:32:37.585Z,95.10
2017-08-08T10:35:05.092Z,93.80
2017-08-08T10:37:32.724Z,93.10
2017-08-08T10:40:01.012Z,92.80
2017-08-08T10:42:29.577Z,92.50
2017-08-08T10:44:57.145Z,92.50
2017-08-08T10:47:25.433Z,91.40
2017-08-08T10:49:53.688Z,92.00
2017-08-08T10:52:22.075Z,92.00
2017-08-08T10:54:50.313Z,94.00
2017-08-08T10:57:17.815Z,94.10
2017-08-08T10:59:46.053Z,93.30
2017-08-08T11:02:13.683Z,93.30
2017-08-08T11:04:41.210Z,93.30
2017-08-08T11:07:09.487Z,92.20
2017-08-08T11:09:37.767Z,92.80
2017-08-08T11:12:06.034Z,93.40
2017-08-08T11:14:34.294Z,94.60
2017-08-08T11:17:01.856Z,94.60
2017-08-08T11:19:29.443Z,95.50
2017-08-08T11:21:57.808Z,94.60
2017-08-08T11:24:26.045Z,95.70
2017-08-08T11:26:53.538Z,95.60
2017-08-08T11:29:21.824Z,95.40
2017-08-08T11:31:50.104Z,93.80
2017-08-08T11:34:18.376Z,92.70
2017-08-08T11:36:46.654Z,93.50
2017-08-08T11:39:14.915Z,93.00
2017-08-08T11:41:42.383Z,92.70
2017-08-08T11:44:10.658Z,93.40
2017-08-08T11:46:38.917Z,93.30
2017-08-08T11:49:06.499Z,93.30
2017-08-08T11:51:34.764Z,93.20
2017-08-08T11:54:02.287Z,93.20
2017-08-08T11:56:29.892Z,93.90
2017-08-08T11:58:58.122Z,93.80
2017-08-08T12:01:25.618Z,93.50
2017-08-08T12:03:53.187Z,93.70
2017-08-08T12:06:21.455Z,93.30
2017-08-08T12:08:49.748Z,94.60
2017-08-08T12:11:18.008Z,94.70
2017-08-08T12:13:46.245Z,95.60
2017-08-08T12:16:13.742Z,95.40
2017-08-08T12:18:41.982Z,94.50
2017-08-08T12:21:09.470Z,94.20
2017-08-08T12:23:37.044Z,92.80
2017-08-08T12:26:05.327Z,92.30
2017-08-08T12:28:33.561Z,91.70
2017-08-08T12:31:01.161Z,91.60
2017-08-08T12:33:29.427Z,92.10
2017-08-08T12:35:57.705Z,91.70
2017-08-08T12:38:25.945Z,92.20
2017-08-08T12:40:53.437Z,92.10
2017-08-08T12:43:21.719Z,91.10
2017-08-08T12:45:49.984Z,91.50
2017-08-08T12:48:17.549Z,91.50
2017-08-08T12:50:45.104Z,91.00
2017-08-08T12:53:13.360Z,92.10
2017-08-08T12:55:40.842Z,91.80
2017-08-08T12:58:09.088Z,92.00
2017-08-08T13:00:36.583Z,92.00
2017-08-08T13:03:04.854Z,92.10
2017-08-08T13:05:33.092Z,92.20
2017-08-08T13:08:00.586Z,92.30
2017-08-08T13:10:28.860Z,91.90
2017-08-08T13:12:57.105Z,92.20
2017-08-08T13:15:24.602Z,92.00
2017-08-08T13:17:52.855Z,92.40
2017-08-08T13:20:20.436Z,92.40
2017-08-08T13:22:48.687Z,93.30
2017-08-08T13:25:16.966Z,94.50
2017-08-08T13:27:44.540Z,94.40
2017-08-08T13:30:12.799Z,95.90
2017-08-08T13:32:40.382Z,95.50
2017-08-08T13:35:08.665Z,96.20
2017-08-08T13:37:36.933Z,96.90
2017-08-08T13:40:04.497Z,96.80
2017-08-08T13:42:32.768Z,97.20
2017-08-08T13:45:01.051Z,96.90
2017-08-08T13:47:28.597Z,96.80
2017-08-08T13:49:56.104Z,97.10
2017-08-08T13:52:23.592Z,96.60
2017-08-08T13:54:51.077Z,95.70
2017-08-08T13:57:19.349Z,95.90
2017-08-08T13:59:46.906Z,95.90
2017-08-08T14:02:14.470Z,95.30
2017-08-08T14:04:41.951Z,95.90
2017-08-08T14:07:09.500Z,95.00
2017-08-08T14:09:37.763Z,94.60
2017-08-08T14:12:05.324Z,94.60
2017-08-08T14:14:33.558Z,94.80
2017-08-08T14:17:01.073Z,94.70
2017-08-08T14:19:29.299Z,94.90
2017-08-08T14:21:56.810Z,94.90
2017-08-08T14:24:25.062Z,94.90
2017-08-08T14:26:52.546Z,94.80
2017-08-08T14:29:20.032Z,95.10
2017-08-08T14:31:47.542Z,95.30
2017-08-08T14:34:15.802Z,95.60
2017-08-08T14:36:43.402Z,95.20
2017-08-08T14:39:10.932Z,95.10
2017-08-08T14:41:38.481Z,94.80
2017-08-08T14:44:06.052Z,94.90
2017-08-08T14:46:33.627Z,94.90
2017-08-08T14:49:03.421Z,94.70
2017-08-08T14:51:30.886Z,94.70
2017-08-08T14:53:59.164Z,94.90
2017-08-08T14:56:27.439Z,94.70
2017-08-08T14:58:54.935Z,94.70
2017-08-08T15:01:22.442Z,94.80
2017-08-08T15:03:50.029Z,94.80
2017-08-08T15:06:18.401Z,94.60
2017-08-08T15:08:46.639Z,94.40
2017-08-08T15:11:14.141Z,94.30
2017-08-08T15:13:42.405Z,93.70
2017-08-08T15:16:10.661Z,93.80
2017-08-08T15:18:38.159Z,93.50
2017-08-08T15:21:08.576Z,93.60
2017-08-08T15:23:36.844Z,93.30
2017-08-08T15:26:05.112Z,93.40
2017-08-08T15:28:32.680Z,93.40
2017-08-08T15:31:00.956Z,93.20
2017-08-08T15:33:28.504Z,93.10
2017-08-08T15:35:55.986Z,93.40
2017-08-08T15:38:24.245Z,92.80
2017-08-08T15:40:52.524Z,90.40
2017-08-08T15:43:20.809Z,87.30
2017-08-08T15:45:49.074Z,86.90
2017-08-08T15:48:16.645Z,86.80
2017-08-08T15:50:44.880Z,84.30
2017-08-08T15:53:12.370Z,83.70
2017-08-08T15:55:39.936Z,84.10
2017-08-08T15:58:08.244Z,82.90
2017-08-08T16:00:36.605Z,82.80
2017-08-08T16:03:04.102Z,82.50
2017-08-08T16:05:31.639Z,82.30
2017-08-08T16:07:59.163Z,82.80
2017-08-08T16:10:27.438Z,82.10
2017-08-08T16:12:55.713Z,83.00
2017-08-08T16:15:23.983Z,81.60
2017-08-08T16:17:51.544Z,81.40
2017-08-08T16:20:19.822Z,82.70
2017-08-08T16:22:47.289Z,82.50
2017-08-08T16:25:15.553Z,82.80
2017-08-08T16:27:43.026Z,82.70
2017-08-08T16:30:11.289Z,81.80
2017-08-08T16:32:38.862Z,81.80
2017-08-08T16:35:07.153Z,80.00
2017-08-08T16:37:34.716Z,79.30
2017-08-08T16:40:02.964Z,78.90
2017-08-08T16:42:31.244Z,78.30
2017-08-08T16:44:59.526Z,77.60
2017-08-08T16:47:27.082Z,77.60
2017-08-08T16:49:55.352Z,80.20
2017-08-08T16:52:22.952Z,79.50
2017-08-08T16:54:50.483Z,80.00
2017-08-08T16:57:18.748Z,78.00
2017-08-08T16:59:46.309Z,77.90
2017-08-08T17:02:14.585Z,78.80
2017-08-08T17:04:42.060Z,78.30
2017-08-08T17:07:09.604Z,78.40
2017-08-08T17:09:37.860Z,79.00
2017-08-08T17:12:05.433Z,79.00
2017-08-08T17:14:33.012Z,79.10
2017-08-08T17:17:01.266Z,79.70
2017-08-08T17:19:28.841Z,79.70
2017-08-08T17:21:57.080Z,80.90
2017-08-08T17:24:24.557Z,80.80
2017-08-08T17:26:52.030Z,80.60
2017-08-08T17:29:20.301Z,80.90
2017-08-08T17:31:47.790Z,80.80
2017-08-08T17:34:15.318Z,81.10
2017-08-08T17:36:43.585Z,81.80
2017-08-08T17:39:11.158Z,81.30
2017-08-08T17:41:39.433Z,81.60
2017-08-08T17:44:07.704Z,82.30
2017-08-08T17:46:35.981Z,83.30
2017-08-08T17:49:04.264Z,82.60
2017-08-08T17:51:32.526Z,83.10
2017-08-08T17:54:00.093Z,83.10
2017-08-08T17:56:27.675Z,83.00
2017-08-08T17:58:55.212Z,82.70
2017-08-08T18:01:22.781Z,83.10
2017-08-08T18:03:51.055Z,83.60
2017-08-08T18:06:19.322Z,83.60
2017-08-08T18:08:46.876Z,83.50
2017-08-08T18:11:14.449Z,84.40
2017-08-08T18:13:42.681Z,86.10
2017-08-08T18:16:10.151Z,86.10
2017-08-08T18:18:37.619Z,88.50
2017-08-08T18:21:08.626Z,89.40
2017-08-08T18:23:36.129Z,90.80
2017-08-08T18:26:04.545Z,90.90
2017-08-08T18:28:32.062Z,91.50
2017-08-08T18:30:59.633Z,91.90
2017-08-08T18:33:27.915Z,92.10
2017-08-08T18:35:56.187Z,92.60
2017-08-08T18:38:24.441Z,92.50
2017-08-08T18:40:51.926Z,92.40
2017-08-08T18:43:20.197Z,92.70
2017-08-08T18:45:48.473Z,93.00
2017-08-08T18:48:16.845Z,93.00
2017-08-08T18:50:44.414Z,93.00
2017-08-08T18:53:12.651Z,93.30
2017-08-08T18:55:40.253Z,93.30
2017-08-08T18:58:08.518Z,93.50
2017-08-08T19:00:36.090Z,93.50
2017-08-08T19:03:04.346Z,93.70
2017-08-08T19:05:31.830Z,93.60
2017-08-08T19:08:00.093Z,93.60
2017-08-08T19:10:28.366Z,93.70
2017-08-08T19:12:55.919Z,94.00
2017-08-08T19:15:23.421Z,93.80
2017-08-08T19:17:50.941Z,93.90
2017-08-08T19:20:19.213Z,93.80
2017-08-08T19:22:46.777Z,93.70
2017-08-08T19:25:14.349Z,93.80
2017-08-08T19:27:42.611Z,93.80
2017-08-08T19:30:10.167Z,93.80
2017-08-08T19:32:37.737Z,93.90
2017-08-08T19:35:06.013Z,94.10
2017-08-08T19:37:34.290Z,94.50
2017-08-08T19:40:02.566Z,94.50
2017-08-08T19:42:30.125Z,94.40
2017-08-08T19:44:57.677Z,94.30
2017-08-08T19:47:25.240Z,94.50
2017-08-08T19:49:52.720Z,94.50
2017-08-08T19:52:20.214Z,94.50
2017-08-08T19:54:47.689Z,94.60
2017-08-08T19:57:15.280Z,94.60
2017-08-08T19:59:42.834Z,94.50
2017-08-08T20:02:10.406Z,94.60
2017-08-08T20:04:38.655Z,94.60
2017-08-08T20:07:06.904Z,94.70
2017-08-08T20:09:34.393Z,94.70
2017-08-08T20:12:01.864Z,94.80
2017-08-08T20:14:30.149Z,94.80
2017-08-08T20:16:58.419Z,94.80
2017-08-08T20:19:26.702Z,94.80
2017-08-08T20:21:54.969Z,94.80
2017-08-08T20:24:23.265Z,95.10
2017-08-08T20:26:51.521Z,94.80
2017-08-08T20:29:19.795Z,95.00
2017-08-08T20:31:47.357Z,94.80
2017-08-08T20:34:15.649Z,95.00
2017-08-08T20:36:43.143Z,94.90
2017-08-08T20:39:10.646Z,95.00
2017-08-08T20:41:38.212Z,95.00
2017-08-08T20:44:06.501Z,95.50
2017-08-08T20:46:34.770Z,95.20
2017-08-08T20:49:03.050Z,95.20
2017-08-08T20:51:31.321Z,95.20
2017-08-08T20:53:59.595Z,95.40
2017-08-08T20:56:27.856Z,95.50
2017-08-08T20:58:55.318Z,95.40
2017-08-08T21:01:22.799Z,95.60
2017-08-08T21:03:51.067Z,95.50
2017-08-08T21:06:19.344Z,95.70
2017-08-08T21:08:47.620Z,95.70
2017-08-08T21:11:15.901Z,95.80
2017-08-08T21:13:44.157Z,95.80
2017-08-08T21:16:11.733Z,95.80
2017-08-08T21:18:39.997Z,95.90
2017-08-08T21:21:08.281Z,95.90
2017-08-08T21:23:36.553Z,95.90
2017-08-08T21:26:04.114Z,95.90
2017-08-08T21:28:31.614Z,95.90
2017-08-08T21:30:59.130Z,95.70
2017-08-08T21:33:26.696Z,96.00
2017-08-08T21:35:54.940Z,96.00
2017-08-08T21:38:22.524Z,96.00
2017-08-08T21:40:50.805Z,96.30
2017-08-08T21:43:19.036Z,96.50
2017-08-08T21:45:46.517Z,96.20
2017-08-08T21:48:14.033Z,96.20
2017-08-08T21:50:41.512Z,96.50
2017-08-08T21:53:09.009Z,96.20
2017-08-08T21:55:36.564Z,96.20
2017-08-08T21:58:04.041Z,96.20
2017-08-08T22:00:32.303Z,96.40
2017-08-08T22:03:00.566Z,96.50
2017-08-08T22:05:28.057Z,96.50
2017-08-08T22:07:55.592Z,96.60
2017-08-08T22:10:23.162Z,96.70
2017-08-08T22:12:51.401Z,97.10
2017-08-08T22:15:18.956Z,96.80
2017-08-08T22:17:46.476Z,97.10
2017-08-08T22:20:14.013Z,97.20
2017-08-08T22:22:42.278Z,97.50
2017-08-08T22:25:09.885Z,97.40
2017-08-08T22:27:37.519Z,97.50
2017-08-08T22:30:05.793Z,97.70
2017-08-08T22:32:34.080Z,97.70
2017-08-08T22:35:01.622Z,97.70
2017-08-08T22:37:29.897Z,98.00
2017-08-08T22:39:58.166Z,97.90
2017-08-08T22:42:25.737Z,97.90
2017-08-08T22:44:53.984Z,98.10
2017-08-08T22:47:21.557Z,98.10
2017-08-08T22:49:49.027Z,98.10
2017-08-08T22:52:17.961Z,97.90
2017-08-08T22:54:45.473Z,97.90
2017-08-08T22:57:13.762Z,98.00
2017-08-08T22:59:42.001Z,98.10
2017-08-08T23:02:09.494Z,98.00
2017-08-08T23:04:37.767Z,98.10
2017-08-08T23:07:06.012Z,98.00
2017-08-08T23:09:33.594Z,98.00
2017-08-08T23:12:01.077Z,98.00
2017-08-08T23:14:28.618Z,98.20
2017-08-08T23:16:56.898Z,98.30
2017-08-08T23:19:25.145Z,98.10
2017-08-08T23:21:52.616Z,98.00
2017-08-08T23:24:20.105Z,98.10
2017-08-08T23:26:47.652Z,98.10
2017-08-08T23:29:16.014Z,98.40
2017-08-08T23:31:43.571Z,98.30
2017-08-08T23:34:11.049Z,98.40
2017-08-08T23:36:39.308Z,98.80
2017-08-08T23:39:06.878Z,98.80
2017-08-08T23:41:35.113Z,98.80
2017-08-08T23:44:02.610Z,98.80
2017-08-08T23:46:30.895Z,98.90
2017-08-08T23:48:59.159Z,98.40
2017-08-08T23:51:27.413Z,98.40
2017-08-08T23:53:54.888Z,98.30
2017-08-08T23:56:22.378Z,98.30
2017-08-08T23:58:49.915Z,98.30
